Time;durP1;ratioP1;P1;durP2;ratioP2;P2;SDS_P1;SDS_P2;PMS_P1;PMS_P2;Temp;Humidity;BMP_temperature;BMP_pressure;BME280_temperature;BME280_humidity;BME280_pressure;Samples;Min_cycle;Max_cycle;Signal;HPM_P1;HPM_P2
2022/01/19 00:02:12;;;;;;;12.83;8.73;;;5.70;33.20;;;;;;6280904;28;20352;-55
2022/01/19 00:05:15;;;;;;;9.30;8.40;;;5.80;32.10;;;;;;6286523;28;20247;-57
2022/01/19 00:08:20;;;;;;;10.37;9.30;;;6.00;32.10;;;;;;6283283;28;20225;-55
2022/01/19 00:11:23;;;;;;;11.47;9.13;;;5.70;31.80;;;;;;6297597;28;20270;-56
2022/01/19 00:14:27;;;;;;;14.77;8.63;;;5.70;31.70;;;;;;6281118;28;20286;-56
2022/01/19 00:17:30;;;;;;;10.73;8.77;;;5.80;31.60;;;;;;6286368;28;20772;-55
2022/01/19 00:20:34;;;;;;;10.23;8.40;;;6.00;31.50;;;;;;6289663;28;20235;-56
2022/01/19 00:23:36;;;;;;;12.37;8.50;;;5.90;31.30;;;;;;6286711;28;20240;-56
2022/01/19 00:26:40;;;;;;;16.50;9.67;;;5.70;32.00;;;;;;6284692;28;20237;-57
2022/01/19 00:29:44;;;;;;;11.27;8.13;;;5.60;31.60;;;;;;6290439;28;20264;-57
2022/01/19 00:32:47;;;;;;;11.90;8.67;;;5.70;31.30;;;;;;6284100;28;20303;-56
2022/01/19 00:35:50;;;;;;;13.23;9.03;;;5.70;31.90;;;;;;6289361;28;20252;-55
2022/01/19 00:38:53;;;;;;;11.13;8.50;;;5.70;32.00;;;;;;6285914;28;20235;-55
2022/01/19 00:41:56;;;;;;;13.00;8.37;;;5.50;32.70;;;;;;6292795;28;20295;-55
2022/01/19 00:45:00;;;;;;;12.57;8.70;;;5.70;32.00;;;;;;6284964;28;20239;-55
2022/01/19 00:48:03;;;;;;;11.20;8.50;;;5.50;32.90;;;;;;6291425;28;20726;-57
2022/01/19 00:51:06;;;;;;;10.80;8.77;;;5.80;32.70;;;;;;6285458;28;20228;-57
2022/01/19 00:54:09;;;;;;;10.33;8.73;;;5.50;32.50;;;;;;6284606;28;20259;-57
2022/01/19 00:57:11;;;;;;;12.20;8.73;;;5.70;31.90;;;;;;6285035;28;20324;-56
2022/01/19 01:00:19;;;;;;;10.37;8.63;;;5.60;32.70;;;;;;6282718;28;20235;-55
2022/01/19 01:03:21;;;;;;;14.70;8.63;;;5.70;33.60;;;;;;6297624;28;20257;-55
2022/01/19 01:06:24;;;;;;;14.60;8.70;;;5.70;32.80;;;;;;6288879;28;20237;-57
2022/01/19 01:09:28;;;;;;;12.43;8.70;;;5.80;33.30;;;;;;6298068;28;20229;-57
2022/01/19 01:12:43;;;;;;;11.63;8.27;;;5.50;33.90;;;;;;6291488;28;20238;-56
2022/01/19 01:16:01;;;;;;;10.57;8.40;;;5.70;33.40;;;;;;6277371;28;20233;-55
2022/01/19 01:19:06;;;;;;;18.00;8.73;;;5.60;34.00;;;;;;6284398;28;20265;-55
2022/01/19 01:22:08;;;;;;;13.40;8.90;;;5.60;32.80;;;;;;6273251;28;20612;-56
2022/01/19 01:25:11;;;;;;;14.10;8.37;;;5.90;32.30;;;;;;6296773;28;20293;-55
2022/01/19 01:28:15;;;;;;;14.63;9.23;;;5.70;32.50;;;;;;6290557;28;20240;-56
2022/01/19 01:31:19;;;;;;;13.20;8.77;;;5.60;32.80;;;;;;6285449;28;20295;-55
2022/01/19 01:34:22;;;;;;;12.73;10.33;;;5.60;33.20;;;;;;6289943;28;20245;-55
2022/01/19 01:37:25;;;;;;;21.83;10.33;;;5.70;33.10;;;;;;6284400;28;20295;-57
2022/01/19 01:40:28;;;;;;;16.93;9.90;;;5.70;32.70;;;;;;6284933;28;20237;-56
2022/01/19 01:43:31;;;;;;;19.67;10.73;;;5.80;33.10;;;;;;6304878;28;20287;-55
2022/01/19 01:46:44;;;;;;;16.53;11.37;;;5.50;32.80;;;;;;6287558;28;20338;-57
2022/01/19 01:53:26;;;;;;;24.43;13.10;;;5.70;33.40;;;;;;6284301;28;20267;-56
2022/01/19 01:53:27;;;;;;;20.07;12.30;;;5.70;33.50;;;;;;6286317;28;20738;-56
2022/01/19 01:56:30;;;;;;;18.90;12.77;;;5.70;33.10;;;;;;6293314;28;20246;-56
2022/01/19 01:59:34;;;;;;;15.37;12.67;;;5.70;33.40;;;;;;6285548;28;20297;-56
2022/01/19 02:02:39;;;;;;;18.90;12.93;;;5.70;33.70;;;;;;6291152;28;20781;-57
2022/01/19 02:05:56;;;;;;;19.00;12.80;;;5.60;34.70;;;;;;6287171;28;20248;-57
2022/01/19 02:09:06;;;;;;;19.10;12.83;;;5.60;34.40;;;;;;6297299;28;20386;-58
2022/01/19 02:22:09;;;;;;;22.70;12.83;;;5.70;34.70;;;;;;6282606;28;20802;-56
2022/01/19 02:25:12;;;;;;;26.00;12.97;;;5.60;34.50;;;;;;6294394;28;20245;-57
2022/01/19 02:41:38;;;;;;;18.37;12.67;;;5.60;34.70;;;;;;6308769;28;20513;-56
2022/01/19 02:51:22;;;;;;;23.43;12.63;;;5.60;35.00;;;;;;6290740;28;20234;-56
2022/01/19 02:54:28;;;;;;;16.83;12.17;;;5.60;33.90;;;;;;6297025;28;20278;-56
2022/01/19 02:57:34;;;;;;;20.90;12.50;;;5.50;33.90;;;;;;6302128;28;20724;-57
2022/01/19 03:10:43;;;;;;;18.80;11.43;;;5.50;33.80;;;;;;6276558;28;20512;-56
2022/01/19 03:13:47;;;;;;;15.27;11.57;;;5.50;32.10;;;;;;6279543;28;20336;-56
2022/01/19 03:16:50;;;;;;;17.30;12.17;;;5.50;32.60;;;;;;6307954;28;20236;-56
2022/01/19 03:19:53;;;;;;;18.37;11.70;;;5.70;32.40;;;;;;6295138;28;20367;-57
2022/01/19 03:23:02;;;;;;;17.90;12.03;;;5.70;32.10;;;;;;6288994;28;20328;-57
2022/01/19 03:26:07;;;;;;;19.43;11.77;;;5.50;31.80;;;;;;6283824;28;20798;-55
2022/01/19 03:29:10;;;;;;;21.87;11.83;;;5.50;32.90;;;;;;6300136;28;20917;-57
2022/01/19 03:32:13;;;;;;;15.83;11.87;;;5.60;33.30;;;;;;6292056;28;20319;-56
2022/01/19 03:35:17;;;;;;;17.57;12.50;;;5.30;32.60;;;;;;6289109;28;20238;-61
2022/01/19 03:38:19;;;;;;;16.10;12.77;;;5.70;33.10;;;;;;6279574;28;20229;-55
2022/01/19 03:41:24;;;;;;;20.83;14.20;;;5.40;32.10;;;;;;6292879;28;20306;-56
2022/01/19 03:44:26;;;;;;;19.70;14.17;;;5.60;32.70;;;;;;6299330;28;20370;-57
2022/01/19 03:47:38;;;;;;;21.60;14.43;;;5.70;32.60;;;;;;6284421;28;20280;-56
2022/01/19 03:50:41;;;;;;;17.47;13.63;;;5.50;32.70;;;;;;6281477;28;20424;-56
2022/01/19 03:53:43;;;;;;;21.10;13.70;;;5.60;32.70;;;;;;6285330;28;20786;-57
2022/01/19 03:56:47;;;;;;;16.60;13.60;;;5.40;32.40;;;;;;6291882;28;20665;-56
2022/01/19 03:59:50;;;;;;;23.47;14.27;;;5.60;32.80;;;;;;6295850;28;20320;-57
2022/01/19 04:02:53;;;;;;;23.60;14.03;;;5.30;33.20;;;;;;6302323;28;20602;-58
2022/01/19 04:06:00;;;;;;;23.63;14.63;;;5.40;33.60;;;;;;6281394;28;20298;-56
2022/01/19 04:09:03;;;;;;;18.17;13.83;;;5.50;33.40;;;;;;6281585;28;20237;-55
2022/01/19 04:12:12;;;;;;;23.60;14.37;;;5.30;33.30;;;;;;6279668;28;20233;-56
2022/01/19 04:15:19;;;;;;;16.97;13.23;;;5.60;34.00;;;;;;6278862;28;20388;-57
2022/01/19 04:18:22;;;;;;;19.17;12.87;;;5.50;31.80;;;;;;6299302;28;21026;-57
2022/01/19 04:21:25;;;;;;;20.37;12.87;;;5.50;32.10;;;;;;6280644;28;20297;-56
2022/01/19 04:24:28;;;;;;;17.73;12.93;;;5.40;31.60;;;;;;6287186;28;20726;-56
2022/01/19 04:27:33;;;;;;;14.63;11.83;;;5.50;32.50;;;;;;6304906;28;20466;-57
2022/01/19 04:30:36;;;;;;;20.77;12.17;;;5.50;31.50;;;;;;6287988;28;20845;-56
2022/01/19 04:33:42;;;;;;;21.20;13.10;;;5.40;32.00;;;;;;6271099;28;20237;-55
2022/01/19 04:37:20;;;;;;;20.70;12.50;;;5.50;32.60;;;;;;6286669;28;20244;-57
2022/01/19 04:44:10;;;;;;;21.33;12.77;;;5.50;32.80;;;;;;6285673;28;20229;-55
2022/01/19 04:54:35;;;;;;;19.50;13.93;;;5.40;31.10;;;;;;6279182;28;20763;-56
2022/01/19 05:04:30;;;;;;;24.30;13.83;;;5.20;32.60;;;;;;6282290;28;20284;-56
2022/01/19 05:07:38;;;;;;;22.57;14.33;;;5.30;33.20;;;;;;6282224;28;20272;-56
2022/01/19 05:14:02;;;;;;;21.33;14.57;;;5.10;33.60;;;;;;6287331;28;20259;-56
2022/01/19 05:17:06;;;;;;;21.90;15.03;;;5.30;33.40;;;;;;6278489;28;20318;-56
2022/01/19 05:20:11;;;;;;;19.47;14.97;;;5.40;33.40;;;;;;6284516;28;20313;-55
2022/01/19 05:23:14;;;;;;;19.37;14.20;;;5.30;34.00;;;;;;6289930;28;20248;-56
2022/01/19 05:26:17;;;;;;;22.77;14.83;;;5.20;34.60;;;;;;6286979;28;20237;-55
2022/01/19 05:29:20;;;;;;;19.03;13.60;;;5.20;34.00;;;;;;6285325;28;20260;-56
2022/01/19 05:32:24;;;;;;;18.30;13.93;;;5.10;33.10;;;;;;6290285;28;20334;-56
2022/01/19 05:35:27;;;;;;;17.77;14.80;;;5.40;33.60;;;;;;6275741;28;20244;-56
2022/01/19 05:38:30;;;;;;;19.47;13.87;;;5.30;33.40;;;;;;6287099;28;20260;-55
2022/01/19 05:41:33;;;;;;;20.27;14.93;;;5.10;33.60;;;;;;6284157;28;20316;-58
2022/01/19 05:44:36;;;;;;;21.73;14.77;;;5.20;34.30;;;;;;6278897;28;20310;-57
2022/01/19 05:47:40;;;;;;;17.57;14.30;;;5.00;34.70;;;;;;6282107;28;20308;-57
2022/01/19 05:50:43;;;;;;;17.33;14.70;;;5.20;35.60;;;;;;6274941;28;20450;-56
2022/01/19 05:53:46;;;;;;;21.13;15.03;;;5.10;33.70;;;;;;6274112;28;20252;-56
2022/01/19 05:56:49;;;;;;;17.03;14.17;;;5.10;34.20;;;;;;6285958;28;20320;-55
2022/01/19 05:59:52;;;;;;;18.20;14.97;;;5.20;34.50;;;;;;6293493;28;20709;-57
2022/01/19 06:02:56;;;;;;;25.77;16.17;;;5.00;34.10;;;;;;6297347;28;20233;-56
2022/01/19 06:05:59;;;;;;;22.50;14.90;;;5.00;34.50;;;;;;6289061;28;20280;-56
2022/01/19 06:09:09;;;;;;;19.13;15.20;;;5.10;34.10;;;;;;6298746;28;20389;-56
2022/01/19 06:12:14;;;;;;;26.57;15.40;;;5.10;34.30;;;;;;6283000;28;20760;-56
2022/01/19 06:15:17;;;;;;;22.57;15.53;;;5.30;34.70;;;;;;6285451;28;21157;-56
2022/01/19 06:18:22;;;;;;;22.10;15.83;;;5.00;33.90;;;;;;6283766;28;20313;-55
2022/01/19 06:21:25;;;;;;;25.47;15.80;;;5.10;34.10;;;;;;6278909;28;20914;-57
2022/01/19 06:24:28;;;;;;;19.93;16.60;;;5.10;34.60;;;;;;6283179;28;20455;-55
2022/01/19 06:27:30;;;;;;;24.57;16.33;;;4.90;35.20;;;;;;6291334;28;20241;-56
2022/01/19 06:30:33;;;;;;;23.33;16.27;;;5.10;36.00;;;;;;6278373;28;20252;-56
2022/01/19 06:33:37;;;;;;;22.37;16.87;;;4.90;35.50;;;;;;6282914;28;20874;-56
2022/01/19 06:36:40;;;;;;;27.17;16.60;;;4.80;35.40;;;;;;6293978;28;20233;-57
2022/01/19 06:39:43;;;;;;;27.53;17.83;;;5.10;35.40;;;;;;6283980;28;20713;-56
2022/01/19 06:42:46;;;;;;;21.93;16.50;;;5.10;34.60;;;;;;6287147;28;20269;-56
2022/01/19 06:45:49;;;;;;;22.07;15.77;;;5.10;35.00;;;;;;6291141;28;20233;-58
2022/01/19 06:48:53;;;;;;;26.87;16.53;;;5.00;35.30;;;;;;6283829;28;20236;-57
2022/01/19 06:51:56;;;;;;;22.57;16.37;;;5.00;35.40;;;;;;6279332;28;20298;-57
2022/01/19 06:54:58;;;;;;;21.77;15.63;;;4.80;35.30;;;;;;6282424;28;20324;-57
2022/01/19 06:58:01;;;;;;;29.03;17.27;;;5.10;35.00;;;;;;6277751;28;20325;-56
2022/01/19 07:01:04;;;;;;;22.27;16.27;;;4.90;34.50;;;;;;6282388;28;20238;-57
2022/01/19 07:04:11;;;;;;;21.80;16.00;;;4.90;35.40;;;;;;6283108;28;20228;-55
2022/01/19 07:07:13;;;;;;;22.27;17.33;;;4.80;35.80;;;;;;6291532;28;20224;-57
2022/01/19 07:10:16;;;;;;;24.00;15.80;;;4.90;36.20;;;;;;6272933;28;20229;-56
2022/01/19 07:13:19;;;;;;;20.47;14.37;;;4.90;35.00;;;;;;6288661;28;20233;-56
2022/01/19 07:16:22;;;;;;;24.87;16.07;;;5.10;35.50;;;;;;6284436;28;20233;-56
2022/01/19 07:19:26;;;;;;;20.00;14.30;;;5.20;34.80;;;;;;6287105;28;20241;-56
2022/01/19 07:22:29;;;;;;;17.13;13.70;;;5.30;34.30;;;;;;6282857;28;20269;-56
2022/01/19 07:25:32;;;;;;;20.83;13.50;;;4.90;35.50;;;;;;6285344;28;20232;-56
2022/01/19 07:28:34;;;;;;;19.37;13.20;;;4.90;34.70;;;;;;6285961;28;20383;-56
2022/01/19 07:31:37;;;;;;;19.70;13.80;;;4.80;35.50;;;;;;6289417;28;20716;-59
2022/01/19 07:34:41;;;;;;;18.67;12.30;;;4.80;35.20;;;;;;6289024;28;21707;-58
2022/01/19 07:37:44;;;;;;;21.83;13.93;;;4.80;35.10;;;;;;6287564;28;20727;-55
2022/01/19 07:40:48;;;;;;;15.50;13.07;;;4.70;35.00;;;;;;6294700;28;20252;-56
2022/01/19 07:43:51;;;;;;;16.80;12.13;;;4.70;35.10;;;;;;6285667;28;20225;-57
2022/01/19 07:46:54;;;;;;;19.57;12.13;;;5.10;34.10;;;;;;6285165;28;20601;-57
2022/01/19 07:49:58;;;;;;;16.13;11.33;;;4.90;34.10;;;;;;6289519;28;20233;-58
2022/01/19 07:53:01;;;;;;;22.90;12.27;;;4.90;33.90;;;;;;6289442;28;20315;-56
2022/01/19 07:56:04;;;;;;;22.90;11.90;;;4.80;32.80;;;;;;6290168;28;20239;-56
2022/01/19 07:59:07;;;;;;;14.87;12.30;;;4.90;34.30;;;;;;6285259;28;20289;-57
2022/01/19 08:02:11;;;;;;;15.27;12.17;;;4.90;33.30;;;;;;6288715;28;20279;-56
2022/01/19 08:05:16;;;;;;;14.93;11.40;;;4.80;32.90;;;;;;6280975;28;20734;-57
2022/01/19 08:08:18;;;;;;;18.00;11.40;;;5.20;34.10;;;;;;6284004;28;20237;-56
2022/01/19 08:11:21;;;;;;;16.60;12.03;;;4.90;34.00;;;;;;6283393;28;20245;-56
2022/01/19 08:14:24;;;;;;;16.07;11.07;;;4.90;33.70;;;;;;6282253;28;20410;-53
2022/01/19 08:17:28;;;;;;;14.03;11.40;;;5.20;33.00;;;;;;6282887;28;20748;-56
2022/01/19 08:20:32;;;;;;;17.87;11.17;;;5.20;31.00;;;;;;6284011;28;20233;-57
2022/01/19 08:23:35;;;;;;;13.63;11.43;;;5.10;30.70;;;;;;6281367;28;20241;-57
2022/01/19 08:26:38;;;;;;;14.63;11.13;;;5.20;30.80;;;;;;6284241;28;20404;-56
2022/01/19 08:29:40;;;;;;;16.73;11.80;;;4.80;31.70;;;;;;6278804;28;20419;-56
2022/01/19 08:32:43;;;;;;;12.47;10.23;;;4.90;32.10;;;;;;6282830;28;20237;-56
2022/01/19 08:35:47;;;;;;;18.47;10.00;;;5.30;30.70;;;;;;6284765;28;20234;-58
2022/01/19 08:38:51;;;;;;;15.40;10.57;;;5.30;29.10;;;;;;6300885;28;20377;-57
2022/01/19 08:41:54;;;;;;;12.80;10.67;;;5.00;30.20;;;;;;6288353;28;20239;-57
2022/01/19 08:44:58;;;;;;;13.83;10.23;;;4.90;30.60;;;;;;6282974;28;20917;-57
2022/01/19 08:48:00;;;;;;;15.43;9.77;;;5.30;29.20;;;;;;6297853;28;20786;-56
2022/01/19 08:51:05;;;;;;;10.87;9.80;;;5.10;28.60;;;;;;6291930;28;20328;-57
2022/01/19 08:54:08;;;;;;;12.63;10.50;;;5.10;30.60;;;;;;6282324;28;20410;-56
2022/01/19 08:57:10;;;;;;;14.83;11.37;;;5.10;30.70;;;;;;6285243;28;20737;-57
2022/01/19 09:00:16;;;;;;;14.33;11.43;;;5.10;30.10;;;;;;6285454;28;20230;-57
2022/01/19 09:03:20;;;;;;;17.67;11.50;;;5.10;30.40;;;;;;6279317;28;20324;-57
2022/01/19 09:06:24;;;;;;;13.73;11.70;;;5.00;28.60;;;;;;6285953;28;20267;-57
2022/01/19 09:09:28;;;;;;;11.73;10.40;;;5.20;28.20;;;;;;6285231;28;20245;-57
2022/01/19 09:12:31;;;;;;;11.93;10.67;;;5.40;27.40;;;;;;6274994;28;20651;-57
2022/01/19 09:15:34;;;;;;;15.33;12.07;;;5.50;26.60;;;;;;6290298;28;20324;-56
2022/01/19 09:18:37;;;;;;;14.93;11.63;;;5.70;23.30;;;;;;6285114;28;20853;-56
2022/01/19 09:21:41;;;;;;;13.17;11.60;;;5.50;21.90;;;;;;6279150;28;20236;-56
2022/01/19 09:24:44;;;;;;;11.73;10.53;;;5.90;23.50;;;;;;6289339;28;20378;-56
2022/01/19 09:27:48;;;;;;;12.40;11.30;;;5.60;22.10;;;;;;6286011;28;20234;-56
2022/01/19 09:30:51;;;;;;;14.30;11.27;;;5.50;24.00;;;;;;6285131;28;20732;-57
2022/01/19 09:34:05;;;;;;;13.03;11.43;;;5.60;23.30;;;;;;6286120;28;20304;-56
2022/01/19 09:37:09;;;;;;;12.30;10.70;;;5.60;21.10;;;;;;6287548;28;20237;-57
2022/01/19 09:40:13;;;;;;;13.10;11.87;;;5.80;21.70;;;;;;6285183;28;20311;-57
2022/01/19 09:43:17;;;;;;;13.47;12.13;;;5.60;22.00;;;;;;6287260;28;20773;-57
2022/01/19 09:46:20;;;;;;;14.10;11.93;;;5.60;20.20;;;;;;6292486;28;20352;-56
2022/01/19 09:49:23;;;;;;;13.93;12.50;;;5.60;20.80;;;;;;6285801;28;20252;-56
2022/01/19 09:52:28;;;;;;;13.60;12.30;;;5.70;22.10;;;;;;6291516;28;20732;-57
2022/01/19 09:55:31;;;;;;;12.70;11.47;;;5.50;23.20;;;;;;6284469;28;20415;-58
2022/01/19 09:58:34;;;;;;;13.63;12.17;;;5.70;20.10;;;;;;6285701;28;20336;-57
2022/01/19 10:01:49;;;;;;;14.47;12.90;;;5.60;19.80;;;;;;6290604;28;20247;-57
2022/01/19 10:04:52;;;;;;;13.07;11.87;;;5.80;19.60;;;;;;6281825;28;20225;-56
2022/01/19 10:08:01;;;;;;;13.77;12.50;;;5.70;19.50;;;;;;6287308;28;20233;-56
2022/01/19 10:11:14;;;;;;;14.40;12.90;;;5.70;20.60;;;;;;6283955;28;20276;-56
2022/01/19 10:17:43;;;;;;;12.77;11.67;;;5.90;21.10;;;;;;6291277;28;20243;-57
2022/01/19 10:20:47;;;;;;;13.80;12.40;;;5.90;20.20;;;;;;6286189;28;20245;-58
2022/01/19 10:23:53;;;;;;;15.70;12.93;;;6.00;20.60;;;;;;6280858;28;20233;-59
2022/01/19 10:26:56;;;;;;;14.67;13.13;;;5.90;21.10;;;;;;6277243;28;20309;-57
2022/01/19 10:30:17;;;;;;;14.07;12.70;;;5.50;21.20;;;;;;6288115;28;20605;-57
2022/01/19 10:33:21;;;;;;;14.33;12.93;;;5.50;23.20;;;;;;6292556;28;20255;-57
2022/01/19 10:36:41;;;;;;;14.03;12.73;;;5.60;23.20;;;;;;6285644;28;20392;-56
2022/01/19 10:39:48;;;;;;;16.70;14.80;;;5.40;24.20;;;;;;6287251;28;20241;-56
2022/01/19 10:42:51;;;;;;;14.97;13.57;;;5.30;26.20;;;;;;6283635;28;20598;-57
2022/01/19 10:45:55;;;;;;;16.97;14.00;;;5.40;25.70;;;;;;6271319;28;20320;-56
2022/01/19 10:49:03;;;;;;;15.00;13.50;;;5.50;24.30;;;;;;6286054;28;20782;-57
2022/01/19 10:52:06;;;;;;;16.23;14.50;;;5.80;23.80;;;;;;6285348;28;20238;-57
2022/01/19 10:55:24;;;;;;;22.53;16.17;;;5.40;24.70;;;;;;6289203;28;20271;-56
2022/01/19 10:58:27;;;;;;;16.47;14.70;;;5.50;25.40;;;;;;6280515;28;20247;-56
2022/01/19 11:01:34;;;;;;;17.53;15.90;;;5.50;23.60;;;;;;6286901;28;20922;-56
2022/01/19 11:04:39;;;;;;;17.67;15.97;;;5.20;22.50;;;;;;6280219;28;20307;-56
2022/01/19 11:07:43;;;;;;;18.17;16.27;;;5.00;24.10;;;;;;6286770;28;20226;-56
2022/01/19 11:10:49;;;;;;;18.90;17.00;;;5.10;24.30;;;;;;6287509;28;20314;-56
2022/01/19 11:13:55;;;;;;;18.93;17.00;;;5.20;25.30;;;;;;6282593;28;20613;-56
2022/01/19 11:16:59;;;;;;;16.63;15.03;;;5.20;23.10;;;;;;6282374;28;20330;-56
2022/01/19 11:20:05;;;;;;;15.20;13.90;;;5.40;19.60;;;;;;6290773;28;20374;-56
2022/01/19 11:23:19;;;;;;;17.57;15.73;;;5.40;21.20;;;;;;6295405;28;20230;-56
2022/01/19 11:26:30;;;;;;;17.90;16.10;;;5.50;22.00;;;;;;6316065;28;20295;-56
2022/01/19 11:29:38;;;;;;;16.13;14.57;;;5.10;24.70;;;;;;6304162;28;20238;-59
2022/01/19 11:32:42;;;;;;;17.33;15.53;;;5.10;23.20;;;;;;6286745;28;20378;-57
2022/01/19 11:35:48;;;;;;;19.23;16.37;;;4.60;22.70;;;;;;6280848;28;20277;-56
2022/01/19 11:38:52;;;;;;;18.90;16.90;;;5.00;22.10;;;;;;6288094;28;20332;-56
2022/01/19 11:41:57;;;;;;;19.63;17.73;;;4.90;24.80;;;;;;6285053;28;20237;-56
2022/01/19 11:45:00;;;;;;;21.00;18.70;;;4.70;26.50;;;;;;6282195;28;20255;-56
2022/01/19 11:48:14;;;;;;;19.83;17.80;;;4.50;28.20;;;;;;6284823;28;20769;-56
2022/01/19 11:51:29;;;;;;;20.03;17.97;;;4.40;29.00;;;;;;6284374;28;20237;-57
2022/01/19 11:54:34;;;;;;;17.87;15.97;;;4.10;28.70;;;;;;6284376;28;20371;-58
2022/01/19 11:57:39;;;;;;;18.07;16.30;;;4.40;28.70;;;;;;6285520;28;20316;-58
2022/01/19 12:00:45;;;;;;;20.03;17.17;;;4.50;27.00;;;;;;6286742;28;20525;-56
2022/01/19 12:03:47;;;;;;;17.30;15.70;;;4.30;28.00;;;;;;6280628;28;20585;-56
2022/01/19 12:07:35;;;;;;;16.60;15.03;;;4.50;27.40;;;;;;6289324;28;20226;-55
2022/01/19 12:10:46;;;;;;;20.03;17.93;;;4.40;26.40;;;;;;6287650;28;20225;-55
2022/01/19 12:14:10;;;;;;;18.40;16.50;;;4.30;27.80;;;;;;6282740;28;20405;-55
2022/01/19 12:17:25;;;;;;;19.60;17.70;;;4.00;31.00;;;;;;6290490;28;20332;-54
2022/01/19 12:20:49;;;;;;;20.37;18.17;;;3.90;31.80;;;;;;6282671;28;20305;-56
2022/01/19 12:23:52;;;;;;;19.97;17.93;;;3.90;30.90;;;;;;6282825;28;20234;-56
2022/01/19 12:27:04;;;;;;;18.90;17.07;;;4.10;30.80;;;;;;6287069;28;20320;-56
2022/01/19 12:30:13;;;;;;;20.43;18.43;;;4.00;31.00;;;;;;6287331;28;20306;-56
2022/01/19 12:33:16;;;;;;;20.10;18.00;;;4.00;29.80;;;;;;6281757;28;20238;-55
2022/01/19 12:36:41;;;;;;;21.10;18.90;;;4.00;29.10;;;;;;6276293;28;20322;-56
2022/01/19 12:39:45;;;;;;;20.83;18.67;;;3.90;29.70;;;;;;6277884;28;20238;-57
2022/01/19 12:42:52;;;;;;;20.77;18.60;;;3.80;30.50;;;;;;6283136;28;20453;-56
2022/01/19 12:45:57;;;;;;;20.77;18.57;;;3.50;30.50;;;;;;6272431;28;20321;-57
2022/01/19 12:49:00;;;;;;;23.03;18.73;;;3.70;30.80;;;;;;6278513;28;20631;-58
2022/01/19 12:52:15;;;;;;;20.33;18.20;;;3.90;30.60;;;;;;6284246;28;20241;-57
2022/01/19 12:55:20;;;;;;;21.40;18.40;;;3.70;30.90;;;;;;6281875;28;20232;-56
2022/01/19 12:58:26;;;;;;;21.57;19.27;;;3.80;32.00;;;;;;6277706;28;20318;-56
2022/01/19 13:01:31;;;;;;;19.60;17.57;;;3.80;33.10;;;;;;6282776;28;20254;-57
2022/01/19 13:04:36;;;;;;;20.83;18.73;;;4.00;31.40;;;;;;6282679;28;20384;-56
2022/01/19 13:07:40;;;;;;;20.73;18.70;;;3.80;33.10;;;;;;6287627;28;20694;-56
2022/01/19 13:10:48;;;;;;;20.63;18.53;;;3.90;32.20;;;;;;6280603;28;20317;-56
2022/01/19 13:13:57;;;;;;;20.20;18.40;;;4.00;31.60;;;;;;6276469;28;20312;-57
2022/01/19 13:17:01;;;;;;;20.57;18.53;;;3.90;32.80;;;;;;6285532;28;20233;-60
2022/01/19 13:20:09;;;;;;;21.67;19.43;;;3.80;31.30;;;;;;6282239;28;20244;-56
2022/01/19 13:23:12;;;;;;;21.83;19.83;;;4.00;31.40;;;;;;6284196;28;20280;-57
2022/01/19 13:26:15;;;;;;;21.53;19.43;;;4.10;29.80;;;;;;6290067;28;20294;-56
2022/01/19 13:29:23;;;;;;;20.70;18.80;;;3.90;30.20;;;;;;6287154;28;20291;-57
2022/01/19 13:32:27;;;;;;;22.23;20.13;;;4.20;29.90;;;;;;6280206;28;20339;-58
2022/01/19 13:35:30;;;;;;;24.47;21.77;;;4.10;28.30;;;;;;6282940;28;20268;-58
2022/01/19 13:38:37;;;;;;;23.60;21.30;;;4.00;28.00;;;;;;6283035;28;20576;-56
2022/01/19 13:41:43;;;;;;;24.77;22.20;;;3.80;29.20;;;;;;6288682;28;20287;-57
2022/01/19 13:44:49;;;;;;;24.47;22.10;;;4.10;29.10;;;;;;6277090;28;20718;-56
2022/01/19 13:48:05;;;;;;;23.77;21.40;;;3.90;28.10;;;;;;6282565;28;20236;-57
2022/01/19 13:51:10;;;;;;;20.63;18.57;;;3.90;29.70;;;;;;6290092;28;20271;-57
2022/01/19 13:54:13;;;;;;;20.10;18.30;;;3.90;28.20;;;;;;6275380;28;20368;-57
2022/01/19 13:57:26;;;;;;;18.67;16.87;;;3.80;29.10;;;;;;6282790;28;20237;-57
2022/01/19 14:00:29;;;;;;;19.30;17.50;;;3.80;30.00;;;;;;6282894;28;20542;-55
2022/01/19 14:03:49;;;;;;;17.93;16.33;;;3.70;30.70;;;;;;6282193;28;20233;-57
2022/01/19 14:06:52;;;;;;;17.03;15.53;;;3.70;29.90;;;;;;6283276;28;20322;-57
2022/01/19 14:10:05;;;;;;;17.20;15.70;;;3.80;29.80;;;;;;6284200;28;20550;-57
2022/01/19 14:13:31;;;;;;;16.40;14.80;;;3.70;29.80;;;;;;6282112;28;20234;-57
2022/01/19 14:16:37;;;;;;;16.27;14.77;;;4.10;29.40;;;;;;6276093;28;20226;-56
2022/01/19 14:19:45;;;;;;;16.00;14.50;;;3.90;29.00;;;;;;6274773;28;20310;-58
2022/01/19 14:23:08;;;;;;;15.10;13.80;;;4.00;29.20;;;;;;6279561;28;20726;-57
2022/01/19 14:26:12;;;;;;;16.77;15.27;;;3.80;28.70;;;;;;6281539;28;20305;-57
2022/01/19 14:29:15;;;;;;;16.40;15.00;;;4.00;29.70;;;;;;6276454;28;20270;-58
2022/01/19 14:32:18;;;;;;;18.90;17.10;;;4.20;29.80;;;;;;6289929;28;20320;-56
2022/01/19 14:35:30;;;;;;;18.03;15.97;;;4.20;29.90;;;;;;6275004;28;20237;-56
2022/01/19 14:38:36;;;;;;;19.40;17.47;;;4.20;30.20;;;;;;6278796;28;20749;-56
2022/01/19 14:41:38;;;;;;;19.97;17.97;;;3.90;30.00;;;;;;6272544;28;20229;-57
2022/01/19 14:44:47;;;;;;;20.00;18.10;;;3.80;30.00;;;;;;6283220;28;20316;-57
2022/01/19 14:47:53;;;;;;;20.33;18.30;;;4.10;30.40;;;;;;6275085;28;20244;-57
2022/01/19 14:50:57;;;;;;;21.20;19.10;;;4.00;30.90;;;;;;6281957;28;20229;-57
2022/01/19 14:54:05;;;;;;;21.97;19.67;;;3.90;30.70;;;;;;6275402;28;20233;-57
2022/01/19 14:57:08;;;;;;;21.63;19.50;;;4.00;31.70;;;;;;6279209;28;20359;-57
2022/01/19 15:00:12;;;;;;;21.33;19.33;;;4.20;31.30;;;;;;6286701;28;20253;-56
2022/01/19 15:03:14;;;;;;;21.73;19.57;;;4.20;31.10;;;;;;6282891;28;20733;-56
2022/01/19 15:06:19;;;;;;;19.77;17.90;;;4.30;31.90;;;;;;6282940;28;20244;-56
2022/01/19 15:09:21;;;;;;;19.40;17.60;;;4.10;31.90;;;;;;6290493;28;20856;-56
2022/01/19 15:12:24;;;;;;;19.57;17.63;;;4.30;31.30;;;;;;6281089;28;20351;-56
2022/01/19 15:15:30;;;;;;;18.77;16.90;;;4.00;30.80;;;;;;6279581;28;20358;-55
2022/01/19 15:18:33;;;;;;;19.30;17.40;;;4.40;32.00;;;;;;6283359;28;20264;-56
2022/01/19 15:21:37;;;;;;;17.30;15.70;;;4.30;32.00;;;;;;6292504;28;20591;-56
2022/01/19 15:24:40;;;;;;;16.20;14.70;;;4.50;30.70;;;;;;6287327;28;20263;-56
2022/01/19 15:27:45;;;;;;;16.17;14.77;;;4.20;30.70;;;;;;6285051;28;20297;-57
2022/01/19 15:30:49;;;;;;;14.77;13.50;;;4.20;30.70;;;;;;6278742;28;20243;-56
2022/01/19 15:33:52;;;;;;;13.77;12.53;;;4.30;31.00;;;;;;6282142;28;20639;-56
2022/01/19 15:36:56;;;;;;;13.70;12.50;;;4.30;31.20;;;;;;6282429;28;20253;-57
2022/01/19 15:39:59;;;;;;;13.47;12.33;;;4.30;31.00;;;;;;6281040;28;20315;-56
2022/01/19 15:43:22;;;;;;;12.70;11.80;;;4.40;31.50;;;;;;6279405;28;20594;-56
2022/01/19 15:46:25;;;;;;;13.13;11.93;;;4.40;31.60;;;;;;6275289;28;20237;-57
2022/01/19 15:49:38;;;;;;;13.63;12.33;;;4.40;30.40;;;;;;6276336;28;20241;-56
2022/01/19 15:52:43;;;;;;;13.43;12.37;;;4.30;29.10;;;;;;6280244;28;20302;-56
2022/01/19 15:55:48;;;;;;;13.83;12.73;;;4.50;29.40;;;;;;6280619;28;20707;-56
2022/01/19 15:58:51;;;;;;;14.40;13.17;;;4.40;30.00;;;;;;6286137;28;20237;-57
2022/01/19 16:01:54;;;;;;;13.30;12.30;;;4.50;28.80;;;;;;6292430;28;20716;-56
2022/01/19 16:04:58;;;;;;;13.30;12.30;;;4.20;27.80;;;;;;6288797;28;20233;-57
2022/01/19 16:08:04;;;;;;;13.17;12.17;;;4.40;26.10;;;;;;6295223;28;20852;-57
2022/01/19 16:11:07;;;;;;;13.40;12.37;;;4.40;25.70;;;;;;6293476;28;20236;-55
2022/01/19 16:14:10;;;;;;;13.77;12.70;;;4.60;24.70;;;;;;6288597;28;20321;-56
2022/01/19 16:17:12;;;;;;;14.57;13.37;;;4.30;24.90;;;;;;6288422;28;20605;-55
2022/01/19 16:20:15;;;;;;;14.97;13.77;;;4.40;24.90;;;;;;6283217;28;20241;-56
2022/01/19 16:26:40;;;;;;;14.60;13.30;;;4.40;24.90;;;;;;6279835;28;20232;-58
2022/01/19 16:29:43;;;;;;;14.40;13.10;;;4.40;25.00;;;;;;6289251;28;20288;-55
2022/01/19 16:32:46;;;;;;;15.30;14.00;;;4.50;24.60;;;;;;6288656;28;20294;-56
2022/01/19 16:35:49;;;;;;;14.27;12.93;;;4.70;24.90;;;;;;6277600;28;20368;-56
2022/01/19 16:38:53;;;;;;;13.67;12.47;;;4.70;25.10;;;;;;6286609;28;20935;-57
2022/01/19 16:42:02;;;;;;;13.83;12.63;;;4.40;24.10;;;;;;6282035;28;20468;-56
2022/01/19 16:45:10;;;;;;;14.27;13.17;;;4.50;24.80;;;;;;6285325;28;20229;-57
2022/01/19 16:48:18;;;;;;;14.57;13.30;;;4.40;25.40;;;;;;6286430;28;20239;-56
2022/01/19 16:51:21;;;;;;;14.20;12.87;;;4.50;24.30;;;;;;6282298;28;20411;-56
2022/01/19 16:54:26;;;;;;;13.30;12.30;;;4.50;24.40;;;;;;6276941;28;20309;-56
2022/01/19 16:57:29;;;;;;;12.30;11.30;;;4.40;23.30;;;;;;6282456;28;20234;-57
2022/01/19 17:00:32;;;;;;;12.73;11.63;;;4.50;21.60;;;;;;6281329;28;20794;-57
2022/01/19 17:03:36;;;;;;;12.30;11.30;;;4.60;21.50;;;;;;6282424;28;20370;-56